createdAt,value
2022-09-16T00:00:57.193Z,11.90
2022-09-16T00:03:24.520Z,11.90
2022-09-16T00:05:53.987Z,11.90
2022-09-16T00:08:22.835Z,11.90
2022-09-16T00:10:50.723Z,12.00
2022-09-16T00:13:19.259Z,12.00
2022-09-16T00:15:51.243Z,12.00
2022-09-16T00:18:23.012Z,12.00
2022-09-16T00:20:54.673Z,12.10
2022-09-16T00:23:21.764Z,12.10
2022-09-16T00:25:55.434Z,12.10
2022-09-16T00:28:23.838Z,12.10
2022-09-16T00:30:51.295Z,12.10
2022-09-16T00:33:20.092Z,12.10
2022-09-16T00:35:47.661Z,12.00
2022-09-16T00:38:14.892Z,12.00
2022-09-16T00:40:49.747Z,12.00
2022-09-16T00:43:19.443Z,12.00
2022-09-16T00:46:03.689Z,12.00
2022-09-16T00:48:34.037Z,12.00
2022-09-16T00:51:09.160Z,12.00
2022-09-16T00:53:46.221Z,12.00
2022-09-16T00:56:19.517Z,12.00
2022-09-16T00:58:56.769Z,12.00
2022-09-16T01:01:23.746Z,12.00
2022-09-16T01:03:59.277Z,12.00
2022-09-16T01:06:28.710Z,12.00
2022-09-16T01:08:57.778Z,12.00
2022-09-16T01:11:25.337Z,12.00
2022-09-16T01:13:53.610Z,12.00
2022-09-16T01:16:32.628Z,12.00
2022-09-16T01:19:43.402Z,12.00
2022-09-16T01:22:36.386Z,12.00
2022-09-16T01:25:53.486Z,12.00
2022-09-16T01:28:54.587Z,12.00
2022-09-16T01:31:42.381Z,11.90
2022-09-16T01:34:34.187Z,11.90
2022-09-16T01:37:34.470Z,11.90
2022-09-16T01:40:45.811Z,11.90
2022-09-16T01:43:54.567Z,11.90
2022-09-16T01:46:48.975Z,11.90
2022-09-16T01:49:43.716Z,11.90
2022-09-16T01:53:04.606Z,11.90
2022-09-16T01:56:22.694Z,11.80
2022-09-16T01:59:08.578Z,11.80
2022-09-16T02:01:52.810Z,11.90
2022-09-16T02:04:31.746Z,11.80
2022-09-16T02:07:04.267Z,11.80
2022-09-16T02:09:42.292Z,11.80
2022-09-16T02:12:21.403Z,11.80
2022-09-16T02:14:54.542Z,11.80
2022-09-16T02:17:28.179Z,11.70
2022-09-16T02:20:12.970Z,11.70
2022-09-16T02:22:51.615Z,11.70
2022-09-16T02:25:22.995Z,11.70
2022-09-16T02:27:53.972Z,11.70
2022-09-16T02:30:23.736Z,11.70
2022-09-16T02:33:07.227Z,11.70
2022-09-16T02:35:39.124Z,11.70
2022-09-16T02:38:35.295Z,11.70
2022-09-16T02:41:03.361Z,11.70
2022-09-16T02:43:30.967Z,11.70
2022-09-16T02:46:50.069Z,11.70
2022-09-16T02:49:55.871Z,11.70
2022-09-16T02:52:55.555Z,11.70
2022-09-16T02:55:44.595Z,11.70
2022-09-16T02:58:11.855Z,11.70
2022-09-16T03:00:47.119Z,11.70
2022-09-16T03:03:15.361Z,11.70
2022-09-16T03:06:29.956Z,11.60
2022-09-16T03:09:01.426Z,11.60
2022-09-16T03:12:09.887Z,11.60
2022-09-16T03:15:00.579Z,11.60
2022-09-16T03:17:51.852Z,11.50
2022-09-16T03:21:08.796Z,11.60
2022-09-16T03:24:21.296Z,11.50
2022-09-16T03:27:20.664Z,11.50
2022-09-16T03:30:03.348Z,11.50
2022-09-16T03:32:48.355Z,11.40
2022-09-16T03:35:36.837Z,11.40
2022-09-16T03:38:08.210Z,11.40
2022-09-16T03:40:37.352Z,11.40
2022-09-16T03:43:16.561Z,11.40
2022-09-16T03:45:44.360Z,11.40
2022-09-16T03:48:13.604Z,11.40
2022-09-16T03:50:40.672Z,11.40
2022-09-16T03:53:07.758Z,11.30
2022-09-16T03:55:34.828Z,11.30
2022-09-16T03:58:01.661Z,11.40
2022-09-16T04:00:29.118Z,11.40
2022-09-16T04:02:56.290Z,11.30
2022-09-16T04:05:23.317Z,11.30
2022-09-16T04:07:50.291Z,11.30
2022-09-16T04:10:18.405Z,11.20
2022-09-16T04:12:46.001Z,11.20
2022-09-16T04:15:13.006Z,11.30
2022-09-16T04:17:40.052Z,11.20
2022-09-16T04:20:08.518Z,11.20
2022-09-16T04:22:35.600Z,11.20
2022-09-16T04:25:02.821Z,11.20
2022-09-16T04:27:29.665Z,11.20
2022-09-16T04:29:56.485Z,11.20
2022-09-16T04:32:23.637Z,11.20
2022-09-16T04:34:50.570Z,11.10
2022-09-16T04:37:17.553Z,11.10
2022-09-16T04:39:44.454Z,11.10
2022-09-16T04:42:12.449Z,11.10
2022-09-16T04:44:40.073Z,11.10
2022-09-16T04:47:07.130Z,11.10
2022-09-16T04:49:34.303Z,11.10
2022-09-16T04:52:01.477Z,11.10
2022-09-16T04:54:28.323Z,11.10
2022-09-16T04:56:55.153Z,11.10
2022-09-16T04:59:22.213Z,11.00
2022-09-16T05:01:49.198Z,11.00
2022-09-16T05:04:16.241Z,11.00
2022-09-16T05:06:44.386Z,11.00
2022-09-16T05:09:13.510Z,11.10
2022-09-16T05:11:42.102Z,11.00
2022-09-16T05:14:17.381Z,11.10
2022-09-16T05:16:45.823Z,11.10
2022-09-16T05:19:14.527Z,11.10
2022-09-16T05:21:42.526Z,11.10
2022-09-16T05:24:13.431Z,11.20
2022-09-16T05:26:43.188Z,11.20
2022-09-16T05:29:17.221Z,11.20
2022-09-16T05:31:47.325Z,11.30
2022-09-16T05:34:28.517Z,11.30
2022-09-16T05:36:56.678Z,11.30
2022-09-16T05:39:25.342Z,11.30
2022-09-16T05:41:59.714Z,11.30
2022-09-16T05:44:28.922Z,11.30
2022-09-16T05:46:56.325Z,11.30
2022-09-16T05:49:23.973Z,11.30
2022-09-16T05:51:52.426Z,11.30
2022-09-16T05:54:23.616Z,11.30
2022-09-16T05:56:51.774Z,11.30
2022-09-16T05:59:20.376Z,11.40
2022-09-16T06:01:47.262Z,11.40
2022-09-16T06:04:15.794Z,11.40
2022-09-16T06:06:47.141Z,11.40
2022-09-16T06:09:21.717Z,11.40
2022-09-16T06:11:55.605Z,11.40
2022-09-16T06:14:28.231Z,11.30
2022-09-16T06:16:55.705Z,11.30
2022-09-16T06:19:23.240Z,11.30
2022-09-16T06:21:50.257Z,11.30
2022-09-16T06:24:19.644Z,11.30
2022-09-16T06:26:49.339Z,11.30
2022-09-16T06:29:17.492Z,11.30
2022-09-16T06:31:44.548Z,11.30
2022-09-16T06:34:18.316Z,11.30
2022-09-16T06:36:45.858Z,11.30
2022-09-16T06:39:15.907Z,11.40
2022-09-16T06:41:43.300Z,11.30
2022-09-16T06:44:10.284Z,11.30
2022-09-16T06:46:37.221Z,11.40
2022-09-16T06:49:06.069Z,11.40
2022-09-16T06:51:35.701Z,11.40
2022-09-16T06:54:07.653Z,11.40
2022-09-16T06:56:37.509Z,11.40
2022-09-16T06:59:05.452Z,11.40
2022-09-16T07:01:33.897Z,11.50
2022-09-16T07:04:10.974Z,11.50
2022-09-16T07:07:07.647Z,11.50
2022-09-16T07:09:25.008Z,11.60
2022-09-16T07:11:52.072Z,11.60
2022-09-16T07:14:19.217Z,11.70
2022-09-16T07:16:46.509Z,11.70
2022-09-16T07:19:13.525Z,11.70
2022-09-16T07:21:41.517Z,11.70
2022-09-16T07:24:13.671Z,11.70
2022-09-16T07:26:43.201Z,11.80
2022-09-16T07:29:15.993Z,11.90
2022-09-16T07:31:43.744Z,11.80
2022-09-16T07:34:13.622Z,11.90
2022-09-16T07:36:45.893Z,12.00
2022-09-16T07:39:17.045Z,12.00
2022-09-16T07:41:48.346Z,12.00
2022-09-16T07:44:21.881Z,12.10
2022-09-16T07:46:51.024Z,12.20
2022-09-16T07:49:18.161Z,12.30
2022-09-16T07:51:45.201Z,12.50
2022-09-16T07:54:17.245Z,12.60
2022-09-16T07:56:45.689Z,12.90
2022-09-16T07:59:19.288Z,13.10
2022-09-16T08:03:47.188Z,13.60
2022-09-16T08:06:25.327Z,13.70
2022-09-16T08:08:55.717Z,13.90
2022-09-16T08:11:23.821Z,14.00
2022-09-16T08:13:51.766Z,14.10
2022-09-16T08:16:22.466Z,14.10
2022-09-16T08:18:56.630Z,14.20
2022-09-16T08:21:28.477Z,14.20
2022-09-16T08:23:57.257Z,14.30
2022-09-16T08:26:25.343Z,14.30
2022-09-16T08:29:09.760Z,14.00
2022-09-16T08:31:38.652Z,14.10
2022-09-16T08:34:06.340Z,14.00
2022-09-16T08:36:34.280Z,14.00
2022-09-16T08:39:01.701Z,14.00
2022-09-16T08:42:43.846Z,14.10
2022-09-16T08:45:52.495Z,14.10
2022-09-16T08:48:39.802Z,14.10
2022-09-16T08:51:17.338Z,14.10
2022-09-16T08:54:01.591Z,14.10
2022-09-16T08:56:36.864Z,14.10
2022-09-16T08:59:17.618Z,14.10
2022-09-16T09:02:19.128Z,14.00
2022-09-16T09:04:46.410Z,14.00
2022-09-16T09:08:26.763Z,14.00
2022-09-16T09:11:13.659Z,14.10
2022-09-16T09:14:27.659Z,14.20
2022-09-16T09:17:58.073Z,14.40
2022-09-16T09:20:56.851Z,14.70
2022-09-16T09:24:40.459Z,14.70
2022-09-16T09:27:36.883Z,14.70
2022-09-16T09:30:27.548Z,14.80
2022-09-16T09:33:47.418Z,14.80
2022-09-16T09:36:47.527Z,14.70
2022-09-16T09:40:09.378Z,14.70
2022-09-16T09:43:08.899Z,14.70
2022-09-16T09:46:05.247Z,14.80
2022-09-16T09:49:16.416Z,15.00
2022-09-16T09:51:55.475Z,15.10
2022-09-16T09:54:34.971Z,15.40
2022-09-16T09:57:17.477Z,15.60
2022-09-16T10:00:12.039Z,15.50
2022-09-16T10:02:48.864Z,15.30
2022-09-16T10:05:29.142Z,15.50
2022-09-16T10:08:20.289Z,15.30
2022-09-16T10:11:01.899Z,15.10
2022-09-16T10:13:30.975Z,15.00
2022-09-16T10:16:18.205Z,15.00
2022-09-16T10:18:45.475Z,15.00
2022-09-16T10:21:17.355Z,15.10
2022-09-16T10:23:58.315Z,15.10
2022-09-16T10:26:28.612Z,14.90
2022-09-16T10:29:15.250Z,14.90
2022-09-16T10:31:43.304Z,14.90
2022-09-16T10:34:33.428Z,15.10
2022-09-16T10:37:08.008Z,15.30
2022-09-16T10:39:35.055Z,15.20
2022-09-16T10:42:04.859Z,15.10
2022-09-16T10:44:37.135Z,14.70
2022-09-16T10:47:30.755Z,14.70
2022-09-16T10:50:06.639Z,14.40
2022-09-16T10:52:45.639Z,14.40
2022-09-16T10:55:35.131Z,14.10
2022-09-16T10:58:28.472Z,13.90
2022-09-16T11:01:13.243Z,14.00
2022-09-16T11:04:32.767Z,13.70
2022-09-16T11:07:56.119Z,13.60
2022-09-16T11:11:01.432Z,13.50
2022-09-16T11:14:13.906Z,13.30
2022-09-16T11:17:26.575Z,13.60
2022-09-16T11:20:44.523Z,13.70
2022-09-16T11:23:49.765Z,13.70
2022-09-16T11:26:44.499Z,14.00
2022-09-16T11:29:57.493Z,14.50
2022-09-16T11:33:32.678Z,14.50
2022-09-16T11:37:05.167Z,14.80
2022-09-16T11:40:00.839Z,15.60
2022-09-16T11:43:13.336Z,16.20
2022-09-16T11:46:24.927Z,17.00
2022-09-16T11:49:46.672Z,17.40
2022-09-16T11:52:53.748Z,16.90
2022-09-16T11:55:51.301Z,16.20
2022-09-16T11:58:58.468Z,15.70
2022-09-16T12:01:52.780Z,15.30
2022-09-16T12:04:45.256Z,15.00
2022-09-16T12:07:24.666Z,14.80
2022-09-16T12:10:21.696Z,14.70
2022-09-16T12:13:26.017Z,14.50
2022-09-16T12:16:09.609Z,14.30
2022-09-16T12:19:09.285Z,14.50
2022-09-16T12:21:48.597Z,14.60
2022-09-16T12:24:42.572Z,14.60
2022-09-16T12:27:52.378Z,14.40
2022-09-16T12:30:27.304Z,14.10
2022-09-16T12:33:21.970Z,14.10
2022-09-16T12:36:06.572Z,14.40
2022-09-16T12:38:35.133Z,14.80
2022-09-16T12:41:43.904Z,15.00
2022-09-16T12:44:38.162Z,15.10
2022-09-16T12:47:29.018Z,15.40
2022-09-16T12:50:51.870Z,15.80
2022-09-16T12:54:00.511Z,15.90
2022-09-16T12:56:54.350Z,15.70
2022-09-16T13:00:05.783Z,15.60
2022-09-16T13:02:57.689Z,15.80
2022-09-16T13:05:33.855Z,16.00
2022-09-16T13:08:27.982Z,16.10
2022-09-16T13:12:16.527Z,16.90
2022-09-16T13:14:30.111Z,16.80
2022-09-16T13:17:02.306Z,16.60
2022-09-16T13:20:14.389Z,16.60
2022-09-16T13:22:41.155Z,16.90
2022-09-16T13:25:30.859Z,16.60
2022-09-16T13:28:33.336Z,16.30
2022-09-16T13:31:12.853Z,15.80
2022-09-16T13:33:57.915Z,15.70
2022-09-16T13:36:25.279Z,15.80
2022-09-16T13:39:03.337Z,15.80
2022-09-16T13:41:41.868Z,15.80
2022-09-16T13:44:42.384Z,16.50
2022-09-16T13:47:12.192Z,17.60
2022-09-16T13:49:56.303Z,19.00
2022-09-16T13:52:35.929Z,18.80
2022-09-16T13:55:24.184Z,18.30
2022-09-16T13:58:35.344Z,19.70
2022-09-16T14:01:59.735Z,20.90
2022-09-16T14:04:50.234Z,20.00
2022-09-16T14:07:49.996Z,18.80
2022-09-16T14:10:54.659Z,17.50
2022-09-16T14:13:24.617Z,18.00
2022-09-16T14:15:57.560Z,20.40
2022-09-16T14:18:31.346Z,19.10
2022-09-16T14:21:23.612Z,17.80
2022-09-16T14:23:51.317Z,16.70
2022-09-16T14:26:24.115Z,16.00
2022-09-16T14:29:03.530Z,15.60
2022-09-16T14:31:33.825Z,15.50
2022-09-16T14:34:10.261Z,15.30
2022-09-16T14:36:40.548Z,15.20
2022-09-16T14:39:07.362Z,15.20
2022-09-16T14:41:58.980Z,15.30
2022-09-16T14:44:48.726Z,15.60
2022-09-16T14:47:51.173Z,15.90
2022-09-16T14:50:32.045Z,16.80
2022-09-16T14:53:09.007Z,17.10
2022-09-16T14:55:39.959Z,19.00
2022-09-16T14:58:11.942Z,20.20
2022-09-16T15:01:00.704Z,19.10
2022-09-16T15:03:43.098Z,18.10
2022-09-16T15:06:19.269Z,17.40
2022-09-16T15:09:13.804Z,16.60
2022-09-16T15:11:59.132Z,16.10
2022-09-16T15:14:27.700Z,15.90
2022-09-16T15:17:02.897Z,15.70
2022-09-16T15:19:39.718Z,15.50
2022-09-16T15:22:14.387Z,15.30
2022-09-16T15:24:42.903Z,15.10
2022-09-16T15:27:10.634Z,15.10
2022-09-16T15:29:55.635Z,14.90
2022-09-16T15:32:27.341Z,14.80
2022-09-16T15:35:27.510Z,14.70
2022-09-16T15:37:55.539Z,14.70
2022-09-16T15:40:28.453Z,14.70
2022-09-16T15:43:18.467Z,14.60
2022-09-16T15:46:00.195Z,14.50
2022-09-16T15:48:42.892Z,14.40
2022-09-16T15:51:32.092Z,14.20
2022-09-16T15:54:26.547Z,14.10
2022-09-16T15:57:29.668Z,14.00
2022-09-16T16:00:16.001Z,13.90
2022-09-16T16:03:04.985Z,13.80
2022-09-16T16:05:32.909Z,13.80
2022-09-16T16:08:09.567Z,13.80
2022-09-16T16:10:38.220Z,13.70
2022-09-16T16:13:05.174Z,13.60
2022-09-16T16:15:39.740Z,13.70
2022-09-16T16:18:10.573Z,14.50
2022-09-16T16:20:38.859Z,15.00
2022-09-16T16:23:06.063Z,14.80
2022-09-16T16:25:33.251Z,14.60
2022-09-16T16:28:00.174Z,14.30
2022-09-16T16:30:27.064Z,13.90
2022-09-16T16:32:53.993Z,13.50
2022-09-16T16:35:20.869Z,13.30
2022-09-16T16:37:47.903Z,13.00
2022-09-16T16:40:15.769Z,12.70
2022-09-16T16:42:44.415Z,12.70
2022-09-16T16:45:14.828Z,12.70
2022-09-16T16:47:42.859Z,13.00
2022-09-16T16:50:11.161Z,13.30
2022-09-16T16:52:39.008Z,13.20
2022-09-16T16:55:07.261Z,12.90
2022-09-16T16:57:34.388Z,12.50
2022-09-16T17:00:01.565Z,12.00
2022-09-16T17:02:28.512Z,11.60
2022-09-16T17:04:55.708Z,11.30
2022-09-16T17:07:27.366Z,11.00
2022-09-16T17:09:59.037Z,10.80
2022-09-16T17:12:26.925Z,10.70
2022-09-16T17:14:54.036Z,10.60
2022-09-16T17:17:21.080Z,10.50
2022-09-16T17:19:48.045Z,10.50
2022-09-16T17:22:15.894Z,10.50
2022-09-16T17:24:42.730Z,10.50
2022-09-16T17:27:09.644Z,10.40
2022-09-16T17:29:36.493Z,10.30
2022-09-16T17:32:03.516Z,10.20
2022-09-16T17:34:31.043Z,10.20
2022-09-16T17:36:58.503Z,10.10
2022-09-16T17:39:26.204Z,9.90
2022-09-16T17:41:56.367Z,9.80
2022-09-16T17:44:23.945Z,9.70
2022-09-16T17:46:50.782Z,9.60
2022-09-16T17:49:23.653Z,9.50
2022-09-16T17:51:53.418Z,9.50
2022-09-16T17:54:22.305Z,9.40
2022-09-16T17:56:49.399Z,9.40
2022-09-16T17:59:18.762Z,9.50
2022-09-16T18:01:46.488Z,9.60
2022-09-16T18:04:13.463Z,9.70
2022-09-16T18:06:46.717Z,9.80
2022-09-16T18:09:16.432Z,9.90
2022-09-16T18:11:44.137Z,9.90
2022-09-16T18:14:14.206Z,10.00
2022-09-16T18:16:42.470Z,10.10
2022-09-16T18:19:09.898Z,10.00
2022-09-16T18:21:38.015Z,10.00
2022-09-16T18:24:11.138Z,9.90
2022-09-16T18:26:39.423Z,9.80
2022-09-16T18:29:10.149Z,9.70
2022-09-16T18:31:42.533Z,9.60
2022-09-16T18:34:10.676Z,9.40
2022-09-16T18:36:39.112Z,9.30
2022-09-16T18:39:12.413Z,9.20
2022-09-16T18:41:42.386Z,9.10
2022-09-16T18:44:23.484Z,9.00
2022-09-16T18:46:52.027Z,9.00
2022-09-16T18:49:22.012Z,8.90
2022-09-16T18:51:52.607Z,8.80
2022-09-16T18:54:29.629Z,8.70
2022-09-16T18:57:01.824Z,8.70
2022-09-16T18:59:33.975Z,8.60
2022-09-16T19:02:03.737Z,8.60
2022-09-16T19:04:38.967Z,8.50
2022-09-16T19:07:08.209Z,8.30
2022-09-16T19:09:39.731Z,8.20
2022-09-16T19:12:12.487Z,8.20
2022-09-16T19:14:40.873Z,8.30
2022-09-16T19:17:07.921Z,8.20
2022-09-16T19:19:35.359Z,8.30
2022-09-16T19:22:05.464Z,8.30
2022-09-16T19:24:33.187Z,8.30
2022-09-16T19:27:00.129Z,8.20
2022-09-16T19:29:27.008Z,8.30
2022-09-16T19:31:54.535Z,8.30
2022-09-16T19:34:22.270Z,8.30
2022-09-16T19:36:50.282Z,8.40
2022-09-16T19:39:18.416Z,8.50
2022-09-16T19:41:45.528Z,8.50
2022-09-16T19:44:17.355Z,8.40
2022-09-16T19:46:46.715Z,8.30
2022-09-16T19:49:22.600Z,8.20
2022-09-16T19:51:53.087Z,8.20
2022-09-16T19:54:23.830Z,8.10
2022-09-16T19:56:51.376Z,8.00
2022-09-16T19:59:19.791Z,8.00
2022-09-16T20:01:47.911Z,7.90
2022-09-16T20:04:19.336Z,7.80
2022-09-16T20:06:46.752Z,7.70
2022-09-16T20:09:14.096Z,7.60
2022-09-16T20:11:46.261Z,7.60
2022-09-16T20:14:20.981Z,7.60
2022-09-16T20:16:51.419Z,7.70
2022-09-16T20:19:20.423Z,7.70
2022-09-16T20:21:47.575Z,7.70
2022-09-16T20:24:24.229Z,7.80
2022-09-16T20:26:54.744Z,7.80
2022-09-16T20:29:22.125Z,7.70
2022-09-16T20:31:53.397Z,7.70
2022-09-16T20:34:24.017Z,7.70
2022-09-16T20:36:51.229Z,7.70
2022-09-16T20:39:18.321Z,7.70
2022-09-16T20:41:49.541Z,7.70
2022-09-16T20:44:16.538Z,7.70
2022-09-16T20:46:44.033Z,7.70
2022-09-16T20:49:19.272Z,7.60
2022-09-16T20:51:46.428Z,7.60
2022-09-16T20:54:16.388Z,7.60
2022-09-16T20:56:47.883Z,7.60
2022-09-16T20:59:19.770Z,7.60
2022-09-16T21:01:48.330Z,7.80
2022-09-16T21:04:20.252Z,7.90
2022-09-16T21:06:47.485Z,8.00
2022-09-16T21:09:16.387Z,7.90
2022-09-16T21:11:44.793Z,7.80
2022-09-16T21:14:15.871Z,7.80
2022-09-16T21:16:45.813Z,7.90
2022-09-16T21:19:13.928Z,7.90
2022-09-16T21:21:44.634Z,8.00
2022-09-16T21:24:13.016Z,7.90
2022-09-16T21:26:41.195Z,7.90
2022-09-16T21:29:15.086Z,7.80
2022-09-16T21:31:43.685Z,7.80
2022-09-16T21:34:16.862Z,7.80
2022-09-16T21:36:45.159Z,7.70
2022-09-16T21:39:15.402Z,7.70
2022-09-16T21:41:45.291Z,7.70
2022-09-16T21:44:14.324Z,7.70
2022-09-16T21:46:46.243Z,7.70
2022-09-16T21:49:23.982Z,7.70
2022-09-16T21:51:55.210Z,7.80
2022-09-16T21:54:24.090Z,7.80
2022-09-16T21:56:52.346Z,7.90
2022-09-16T21:59:20.488Z,8.00
2022-09-16T22:01:50.519Z,8.00
2022-09-16T22:04:24.366Z,8.10
2022-09-16T22:06:55.342Z,8.00
2022-09-16T22:09:23.038Z,7.90
2022-09-16T22:11:50.143Z,7.70
2022-09-16T22:14:17.587Z,7.60
2022-09-16T22:16:44.930Z,7.40
2022-09-16T22:19:17.508Z,7.30
2022-09-16T22:21:49.039Z,7.10
2022-09-16T22:24:20.147Z,7.00
2022-09-16T22:26:51.642Z,6.90
2022-09-16T22:29:18.868Z,6.80
2022-09-16T22:31:46.071Z,6.80
2022-09-16T22:34:13.052Z,6.80
2022-09-16T22:36:40.167Z,6.80
2022-09-16T22:39:17.631Z,6.80
2022-09-16T22:41:44.640Z,6.80
2022-09-16T22:44:13.416Z,6.80
2022-09-16T22:46:46.124Z,6.80
2022-09-16T22:49:15.015Z,6.80
2022-09-16T22:51:42.891Z,6.80
2022-09-16T22:54:13.835Z,6.80
2022-09-16T22:56:42.387Z,6.80
2022-09-16T22:59:19.956Z,6.80
2022-09-16T23:01:47.525Z,6.80
2022-09-16T23:04:15.073Z,6.80
2022-09-16T23:06:43.116Z,6.70
2022-09-16T23:09:14.415Z,6.70
2022-09-16T23:11:41.846Z,6.80
2022-09-16T23:14:15.493Z,6.80
2022-09-16T23:16:42.444Z,6.70
2022-09-16T23:19:11.858Z,6.80
2022-09-16T23:21:40.422Z,6.80
2022-09-16T23:24:15.352Z,6.80
2022-09-16T23:26:42.749Z,6.90
2022-09-16T23:29:13.296Z,6.90
2022-09-16T23:31:44.288Z,6.90
2022-09-16T23:34:19.860Z,7.00
2022-09-16T23:36:48.860Z,7.00
2022-09-16T23:39:17.883Z,6.90
2022-09-16T23:41:46.052Z,6.90
2022-09-16T23:44:15.492Z,6.80
2022-09-16T23:46:42.983Z,6.70
2022-09-16T23:49:10.659Z,6.70
2022-09-16T23:51:37.860Z,6.70
2022-09-16T23:54:05.012Z,6.60
2022-09-16T23:56:32.599Z,6.60
2022-09-16T23:59:01.047Z,6.60
